Huvudsida
METAR-TAF:

METAR-TAF

Flygplatser :

Alta flygplats

Alta, Norge

latitud: 69-59N, longitud: 023-22E, höjd: 0 m

Aktuellt väderrapport

Denna rapport gjordes för 57 minuter sedan, klockan 14:50 UTC
Vind 7 kt från syd, varierande mellan sydost och syd/sydväst
Temperatur 15°C
Fuktighet 67%
Tryck 1008 hPa
Sikt 10 km eller mer
Brutna moln på en höjd av 2600 ft

METAR: ENAT 161450Z 17007KT 140V210 9999 BKN026 15/09 Q1008 RMK WIND 700FT 18019KT

Tid: 17:47 (15:47 UTC)

Väderprognos

Denna rapport gjordes för 1 timme och 47 minuter sedan, klockan 14:00 UTC
Prognos gäller från 16 kl. 15 UTC till 16 kl. 22 UTC
Vind 8 kt från syd/sydost
Sikt 10 km eller mer
Få moln på en höjd av 1500 ft
Brutna moln på en höjd av 4000 ft

TAF: ENAT 161400Z 1615/1622 16008KT 9999 FEW015 BKN040

Aktuella väderrapporter och prognoser från 4000 flygplatser (METAR- och TAF-rapporter).

De tillgängliga stationerna syns som gula och röda prickar på kartan.

För musen över prickarna för att se namnen på stationerna.

Klicka sedan för att få väderrapporter och prognoser.

För att ändra kartan: Klicka på de gröna knapparna med ett svart kors på för att zooma in; den gröna knappen med ett streck på för att zooma ut; eller på de gröna pilarna för angränsande kartor.


METAR-TAF: